Kellys Korner, Washington
Current Conditions -  °F | °C
As of 12:54 AM on Tuesday 21 Oct 2014 (Local Time) from KOLM Reporting Station
Overcast Overcast  
Wind Chill: 12°   Ceiling: 4100
Heat Index: 12°   Visibility: 10mi
Dew Point: 11°   Wind: 7mph
Humidity: 90%   Direction: 190°S
Pressure: 29.81"   Gusts: NA
Location:  46.9679°N, 122.834°W
Report Text: KOLM 210754Z AUTO 19006KT 10SM BKN041 BKN055 OVC070 12/11 A2981 RMK AO2 SLP096 T01220106 401720111
Loading
Personal Weather Stations






























Interactive Weather Map
Tropical Storm Tracking
New forecast layout! Learn more

10-Day Weather Forecast

Advertisements
Track Severe Weather on mobile